KSFB/SFB METAR and TAF weather

Enter ICAO airport designator
Station Type Date Time Source
KSFB METAR 2020/04/02 02:53 UTC NOAA

KSFB 020253Z AUTO 03004KT 10SM CLR 15/11 A2996 RMK AO2 SLP146 T01500106 51026


Station Type Date Time Source
KSFB Decoded METAR 2020/04/02 02:53 UTC NOAA

ORLANDO SANFORD AIRPORT, FL, United States (KSFB) 28-47N 081-15W
Apr 01, 2020 - 10:53 PM EDT / 2020.04.02 0253 UTC
Wind: from the NNE (030 degrees) at 5 MPH (4 KT):0
Visibility: 10 mile(s):0
Sky conditions: clear
Temperature: 59.0 F (15.0 C)
Dew Point: 51.1 F (10.6 C)
Relative Humidity: 74%
Pressure (altimeter): 29.96 in. Hg (1014 hPa)
Pressure tendency: 0.08 inches (2.6 hPa) higher than three hours ago
ob: KSFB 020253Z AUTO 03004KT 10SM CLR 15/11 A2996 RMK AO2 SLP146 T01500106 51026
cycle: 3

Station Type Date Time Source
KSFB TAF 2020/04/01 18:36 UTC NOAA

TAF KSFB 011732Z 0118/0218 33012G17KT P6SM SKC
FM020000 01004KT P6SM SKC
FM021500 03005KT P6SM SCT035

Example: see airport list